createdAt,value
2023-01-29T00:01:15.864Z,14.18
2023-01-29T00:04:19.736Z,14.10
2023-01-29T00:07:22.097Z,14.77
2023-01-29T00:10:26.051Z,16.17
2023-01-29T00:13:30.989Z,14.25
2023-01-29T00:16:33.657Z,14.95
2023-01-29T00:19:36.307Z,15.27
2023-01-29T00:22:38.960Z,15.77
2023-01-29T00:25:42.729Z,15.45
2023-01-29T00:28:47.257Z,15.90
2023-01-29T00:31:53.716Z,15.55
2023-01-29T00:34:57.988Z,14.38
2023-01-29T00:38:00.424Z,13.95
2023-01-29T00:41:29.601Z,14.45
2023-01-29T00:44:50.537Z,15.18
2023-01-29T00:47:53.159Z,14.95
2023-01-29T00:50:55.472Z,14.52
2023-01-29T00:53:58.422Z,15.48
2023-01-29T00:57:01.759Z,14.45
2023-01-29T01:00:07.713Z,15.20
2023-01-29T01:03:10.780Z,13.88
2023-01-29T01:06:15.944Z,15.75
2023-01-29T01:09:36.913Z,14.25
2023-01-29T01:12:40.127Z,15.45
2023-01-29T01:15:42.445Z,14.98
2023-01-29T01:18:45.324Z,14.70
2023-01-29T01:21:48.414Z,14.68
2023-01-29T01:24:51.044Z,14.80
2023-01-29T01:31:11.678Z,15.05
2023-01-29T01:34:14.101Z,14.90
2023-01-29T01:37:17.168Z,15.55
2023-01-29T01:40:28.674Z,15.07
2023-01-29T01:43:50.807Z,15.20
2023-01-29T01:46:55.661Z,15.07
2023-01-29T01:50:03.386Z,15.02
2023-01-29T01:53:54.894Z,14.13
2023-01-29T01:57:24.215Z,14.38
2023-01-29T02:00:27.120Z,15.75
2023-01-29T02:03:52.243Z,14.13
2023-01-29T02:07:15.057Z,14.65
2023-01-29T02:10:25.552Z,15.13
2023-01-29T02:13:31.153Z,14.25
2023-01-29T02:16:40.801Z,13.57
2023-01-29T02:20:26.411Z,15.77
2023-01-29T02:24:11.631Z,13.93
2023-01-29T02:27:20.019Z,14.90
2023-01-29T02:30:36.568Z,15.07
2023-01-29T02:34:01.048Z,14.27
2023-01-29T02:37:11.430Z,14.30
2023-01-29T02:40:38.488Z,14.47
2023-01-29T02:44:01.858Z,13.15
2023-01-29T02:47:42.096Z,15.33
2023-01-29T02:51:01.765Z,13.52
2023-01-29T02:54:17.008Z,12.95
2023-01-29T02:57:41.815Z,14.02
2023-01-29T03:04:34.159Z,13.62
2023-01-29T03:07:46.515Z,14.52
2023-01-29T03:10:59.689Z,13.65
2023-01-29T03:14:33.278Z,14.15
2023-01-29T03:17:56.875Z,13.40
2023-01-29T03:24:33.378Z,12.60
2023-01-29T03:28:06.294Z,13.27
2023-01-29T03:31:36.686Z,13.65
2023-01-29T03:34:52.035Z,12.80
2023-01-29T03:37:59.536Z,13.32
2023-01-29T03:41:09.062Z,14.15
2023-01-29T03:44:21.822Z,12.98
2023-01-29T03:47:45.453Z,12.77
2023-01-29T03:54:13.895Z,12.40
2023-01-29T03:57:30.575Z,13.25
2023-01-29T04:00:56.250Z,12.35
2023-01-29T04:04:17.241Z,12.30
2023-01-29T04:07:27.051Z,12.70
2023-01-29T04:10:35.802Z,12.43
2023-01-29T04:13:47.290Z,13.05
2023-01-29T04:17:03.019Z,12.05
2023-01-29T04:20:06.689Z,11.73
2023-01-29T04:23:23.328Z,12.27
2023-01-29T04:26:51.972Z,11.57
2023-01-29T04:30:07.286Z,12.70
2023-01-29T04:33:40.561Z,12.63
2023-01-29T04:36:58.175Z,11.40
2023-01-29T04:43:21.165Z,11.25
2023-01-29T04:46:36.751Z,11.18
2023-01-29T04:49:42.089Z,10.38
2023-01-29T04:53:02.652Z,11.23
2023-01-29T04:56:21.189Z,11.25
2023-01-29T04:59:33.656Z,11.52
2023-01-29T05:02:39.694Z,10.13
2023-01-29T05:05:46.638Z,10.88
2023-01-29T05:08:51.228Z,10.23
2023-01-29T05:11:56.379Z,10.23
2023-01-29T05:15:05.308Z,10.07
2023-01-29T05:18:09.156Z,10.52
2023-01-29T05:21:11.988Z,9.30
2023-01-29T05:24:20.421Z,9.98
2023-01-29T05:27:50.090Z,10.38
2023-01-29T05:30:55.719Z,8.50
2023-01-29T05:33:58.439Z,9.38
2023-01-29T05:37:00.785Z,9.45
2023-01-29T05:40:03.644Z,10.00
2023-01-29T05:43:13.999Z,10.32
2023-01-29T05:46:16.672Z,10.07
2023-01-29T05:49:20.628Z,9.20
2023-01-29T05:52:23.228Z,9.55
2023-01-29T05:55:26.287Z,9.07
2023-01-29T05:58:31.309Z,8.77
2023-01-29T06:01:33.801Z,9.27
2023-01-29T06:04:36.582Z,9.02
2023-01-29T06:07:42.245Z,8.90
2023-01-29T06:10:46.151Z,8.48
2023-01-29T06:13:48.941Z,8.48
2023-01-29T06:16:51.631Z,8.55
2023-01-29T06:19:53.988Z,9.55
2023-01-29T06:22:56.668Z,9.30
2023-01-29T06:26:08.220Z,9.85
2023-01-29T06:29:10.841Z,9.77
2023-01-29T06:32:13.162Z,8.82
2023-01-29T06:35:15.896Z,9.00
2023-01-29T06:38:18.231Z,7.97
2023-01-29T06:41:25.732Z,8.75
2023-01-29T06:44:28.236Z,8.88
2023-01-29T06:47:31.103Z,8.27
2023-01-29T06:50:33.470Z,7.62
2023-01-29T06:53:37.724Z,8.68
2023-01-29T06:59:42.909Z,8.05
2023-01-29T07:02:45.264Z,8.55
2023-01-29T07:05:52.928Z,8.57
2023-01-29T07:08:55.594Z,8.95
2023-01-29T07:12:37.143Z,9.43
2023-01-29T07:15:42.961Z,8.43
2023-01-29T07:18:48.132Z,8.43
2023-01-29T07:21:50.490Z,8.45
2023-01-29T07:24:53.112Z,7.37
2023-01-29T07:27:55.511Z,8.18
2023-01-29T07:31:00.768Z,9.23
2023-01-29T07:34:03.621Z,11.27
2023-01-29T07:37:06.393Z,8.97
2023-01-29T07:40:12.272Z,8.23
2023-01-29T07:43:15.040Z,7.80
2023-01-29T07:46:17.632Z,7.57
2023-01-29T07:49:20.427Z,7.70
2023-01-29T07:52:22.907Z,8.18
2023-01-29T07:55:25.747Z,8.98
2023-01-29T07:58:28.109Z,9.07
2023-01-29T08:01:30.801Z,9.40
2023-01-29T08:04:33.390Z,7.75
2023-01-29T08:07:35.710Z,8.35
2023-01-29T08:10:39.790Z,8.30
2023-01-29T08:13:42.168Z,7.45
2023-01-29T08:16:44.844Z,7.97
2023-01-29T08:19:47.280Z,7.95
2023-01-29T08:22:50.355Z,7.28
2023-01-29T08:25:52.823Z,7.43
2023-01-29T08:28:55.520Z,8.10
2023-01-29T08:31:57.869Z,7.50
2023-01-29T08:35:00.539Z,6.47
2023-01-29T08:38:05.161Z,6.32
2023-01-29T08:41:08.231Z,7.40
2023-01-29T08:44:11.055Z,7.03
2023-01-29T08:47:13.770Z,10.93
2023-01-29T08:50:17.665Z,7.85
2023-01-29T08:53:24.642Z,7.10
2023-01-29T08:56:26.995Z,6.43
2023-01-29T08:59:29.602Z,6.97
2023-01-29T09:02:32.686Z,6.97
2023-01-29T09:05:37.212Z,7.07
2023-01-29T09:08:40.170Z,7.22
2023-01-29T09:11:42.876Z,6.25
2023-01-29T09:14:45.212Z,5.78
2023-01-29T09:17:49.465Z,6.95
2023-01-29T09:23:56.002Z,6.37
2023-01-29T09:26:58.584Z,6.32
2023-01-29T09:30:01.215Z,6.28
2023-01-29T09:33:07.446Z,7.18
2023-01-29T09:36:10.138Z,7.37
2023-01-29T09:39:12.437Z,6.75
2023-01-29T09:42:24.409Z,6.78
2023-01-29T09:45:28.422Z,6.03
2023-01-29T09:48:35.161Z,6.65
2023-01-29T09:51:43.384Z,6.12
2023-01-29T09:55:11.569Z,6.35
2023-01-29T09:58:19.297Z,6.15
2023-01-29T10:01:41.055Z,5.82
2023-01-29T10:04:57.763Z,5.93
2023-01-29T10:08:21.779Z,6.25
2023-01-29T10:11:46.296Z,6.03
2023-01-29T10:14:56.968Z,6.03
2023-01-29T10:18:05.644Z,6.47
2023-01-29T10:21:38.636Z,6.20
2023-01-29T10:24:41.180Z,5.47
2023-01-29T10:27:50.137Z,4.97
2023-01-29T10:31:00.155Z,6.07
2023-01-29T10:34:23.742Z,5.87
2023-01-29T10:37:45.021Z,6.30
2023-01-29T10:41:04.236Z,6.03
2023-01-29T10:44:54.545Z,5.78
2023-01-29T10:48:04.177Z,5.30
2023-01-29T10:51:19.210Z,5.28
2023-01-29T10:54:21.424Z,5.43
2023-01-29T10:57:39.314Z,6.35
2023-01-29T11:00:42.636Z,5.75
2023-01-29T11:03:45.594Z,4.97
2023-01-29T11:06:49.640Z,5.07
2023-01-29T11:10:02.892Z,5.45
2023-01-29T11:13:05.591Z,5.35
2023-01-29T11:16:09.359Z,5.75
2023-01-29T11:19:11.846Z,5.03
2023-01-29T11:22:17.405Z,5.15
2023-01-29T11:25:20.542Z,4.90
2023-01-29T11:28:47.022Z,4.87
2023-01-29T11:31:49.445Z,5.70
2023-01-29T11:35:01.169Z,5.97
2023-01-29T11:38:24.751Z,5.72
2023-01-29T11:41:27.637Z,5.95
2023-01-29T11:44:29.954Z,5.60
2023-01-29T11:47:33.067Z,6.25
2023-01-29T11:50:35.532Z,5.60
2023-01-29T11:53:45.097Z,6.12
2023-01-29T11:56:48.899Z,5.22
2023-01-29T11:59:53.662Z,4.90
2023-01-29T12:03:04.845Z,5.68
2023-01-29T12:06:17.895Z,5.00
2023-01-29T12:09:24.534Z,5.07
2023-01-29T12:12:30.601Z,5.85
2023-01-29T12:15:33.566Z,5.47
2023-01-29T12:18:41.598Z,5.25
2023-01-29T12:21:51.091Z,5.45
2023-01-29T12:25:03.935Z,6.05
2023-01-29T12:28:08.500Z,4.97
2023-01-29T12:31:18.068Z,4.72
2023-01-29T12:34:45.197Z,5.35
2023-01-29T12:38:20.156Z,4.50
2023-01-29T12:41:37.988Z,5.70
2023-01-29T12:44:49.724Z,4.75
2023-01-29T12:47:56.347Z,5.37
2023-01-29T12:51:07.683Z,4.70
2023-01-29T12:54:15.496Z,4.90
2023-01-29T12:57:48.634Z,5.28
2023-01-29T13:00:54.531Z,5.28
2023-01-29T13:04:10.122Z,4.75
2023-01-29T13:07:21.259Z,4.70
2023-01-29T13:10:30.216Z,5.20
2023-01-29T13:14:05.868Z,4.68
2023-01-29T13:17:27.959Z,5.05
2023-01-29T13:20:34.060Z,4.60
2023-01-29T13:23:40.660Z,4.82
2023-01-29T13:26:46.262Z,4.82
2023-01-29T13:29:49.092Z,4.15
2023-01-29T13:33:09.180Z,5.18
2023-01-29T13:36:22.089Z,5.12
2023-01-29T13:39:31.307Z,4.75
2023-01-29T13:42:46.024Z,4.90
2023-01-29T13:45:51.580Z,4.62
2023-01-29T13:48:58.220Z,4.47
2023-01-29T13:52:31.775Z,5.00
2023-01-29T13:55:41.040Z,4.35
2023-01-29T13:58:46.182Z,4.70
2023-01-29T14:01:48.797Z,5.20
2023-01-29T14:04:51.910Z,4.80
2023-01-29T14:07:54.294Z,5.05
2023-01-29T14:11:15.409Z,5.40
2023-01-29T14:14:49.123Z,5.20
2023-01-29T14:18:00.123Z,5.45
2023-01-29T14:21:16.745Z,5.35
2023-01-29T14:24:28.073Z,5.10
2023-01-29T14:27:31.509Z,4.87
2023-01-29T14:30:35.538Z,5.10
2023-01-29T14:33:43.449Z,4.40
2023-01-29T14:36:55.174Z,4.72
2023-01-29T14:40:19.088Z,5.00
2023-01-29T14:43:22.008Z,5.10
2023-01-29T14:46:36.098Z,4.50
2023-01-29T14:49:58.942Z,5.35
2023-01-29T14:53:23.286Z,5.40
2023-01-29T14:56:41.024Z,6.10
2023-01-29T15:00:05.280Z,5.45
2023-01-29T15:06:20.180Z,5.03
2023-01-29T15:09:46.063Z,4.85
2023-01-29T15:12:56.757Z,5.47
2023-01-29T15:16:15.105Z,6.18
2023-01-29T15:19:32.156Z,5.25
2023-01-29T15:22:43.616Z,5.72
2023-01-29T15:25:52.562Z,6.12
2023-01-29T15:29:04.863Z,5.25
2023-01-29T15:32:08.258Z,6.15
2023-01-29T15:35:26.427Z,6.30
2023-01-29T15:38:29.676Z,5.87
2023-01-29T15:41:32.281Z,6.70
2023-01-29T15:44:34.813Z,6.10
2023-01-29T15:47:37.644Z,6.60
2023-01-29T15:50:41.818Z,5.75
2023-01-29T15:53:58.315Z,6.37
2023-01-29T15:57:02.529Z,7.10
2023-01-29T16:00:07.471Z,7.03
2023-01-29T16:03:16.624Z,6.72
2023-01-29T16:06:20.625Z,6.75
2023-01-29T16:09:26.073Z,6.47
2023-01-29T16:12:28.850Z,6.60
2023-01-29T16:15:35.029Z,6.62
2023-01-29T16:18:41.034Z,6.85
2023-01-29T16:22:01.932Z,6.15
2023-01-29T16:25:08.751Z,7.25
2023-01-29T16:28:11.341Z,6.80
2023-01-29T16:31:31.513Z,6.85
2023-01-29T16:34:39.809Z,7.15
2023-01-29T16:37:48.877Z,7.28
2023-01-29T16:41:30.932Z,8.27
2023-01-29T16:44:39.342Z,7.47
2023-01-29T16:47:41.724Z,7.72
2023-01-29T16:50:54.634Z,7.25
2023-01-29T16:53:57.509Z,7.53
2023-01-29T16:57:02.057Z,8.15
2023-01-29T17:00:08.250Z,7.50
2023-01-29T17:03:12.673Z,8.52
2023-01-29T17:06:24.680Z,8.82
2023-01-29T17:09:30.043Z,8.63
2023-01-29T17:12:33.677Z,8.75
2023-01-29T17:15:47.783Z,7.80
2023-01-29T17:21:52.994Z,7.55
2023-01-29T17:24:55.514Z,8.75
2023-01-29T17:28:01.562Z,8.07
2023-01-29T17:31:06.692Z,7.32
2023-01-29T17:34:14.222Z,7.72
2023-01-29T17:37:17.074Z,8.68
2023-01-29T17:40:37.098Z,8.07
2023-01-29T17:43:39.471Z,8.20
2023-01-29T17:46:42.979Z,8.10
2023-01-29T17:49:45.389Z,8.70
2023-01-29T17:52:48.463Z,9.07
2023-01-29T17:55:51.432Z,8.55
2023-01-29T17:58:54.180Z,8.93
2023-01-29T18:01:56.770Z,8.80
2023-01-29T18:04:59.585Z,9.35
2023-01-29T18:08:02.437Z,8.70
2023-01-29T18:11:05.757Z,9.07
2023-01-29T18:14:12.059Z,8.85
2023-01-29T18:17:22.235Z,8.57
2023-01-29T18:20:27.503Z,9.00
2023-01-29T18:23:31.270Z,9.02
2023-01-29T18:26:33.840Z,8.60
2023-01-29T18:29:36.508Z,8.95
2023-01-29T18:32:39.210Z,8.75
2023-01-29T18:35:43.962Z,8.60
2023-01-29T18:38:46.261Z,8.55
2023-01-29T18:41:48.861Z,8.10
2023-01-29T18:44:51.313Z,8.70
2023-01-29T18:47:54.569Z,8.43
2023-01-29T18:50:57.248Z,9.38
2023-01-29T18:53:59.868Z,8.02
2023-01-29T18:57:13.370Z,8.15
2023-01-29T19:00:17.685Z,7.65
2023-01-29T19:03:20.156Z,7.25
2023-01-29T19:06:22.823Z,7.75
2023-01-29T19:09:25.144Z,8.45
2023-01-29T19:12:27.806Z,7.57
2023-01-29T19:15:30.178Z,7.95
2023-01-29T19:18:32.897Z,7.62
2023-01-29T19:21:36.805Z,6.93
2023-01-29T19:24:39.453Z,7.68
2023-01-29T19:27:41.768Z,7.22
2023-01-29T19:30:44.520Z,11.07
2023-01-29T19:33:46.903Z,9.48
2023-01-29T19:36:49.589Z,7.47
2023-01-29T19:39:52.111Z,7.68
2023-01-29T19:42:55.995Z,8.15
2023-01-29T19:46:01.913Z,7.87
2023-01-29T19:49:06.678Z,7.18
2023-01-29T19:52:14.975Z,8.32
2023-01-29T19:55:19.097Z,8.32
2023-01-29T20:01:29.701Z,7.50
2023-01-29T20:04:32.520Z,7.12
2023-01-29T20:07:36.039Z,7.90
2023-01-29T20:10:39.010Z,12.05
2023-01-29T20:13:41.419Z,8.18
2023-01-29T20:16:43.991Z,7.57
2023-01-29T20:19:46.484Z,8.05
2023-01-29T20:22:49.085Z,8.50
2023-01-29T20:25:52.153Z,7.70
2023-01-29T20:28:54.723Z,7.97
2023-01-29T20:31:57.357Z,7.85
2023-01-29T20:35:00.143Z,8.18
2023-01-29T20:38:03.419Z,8.35
2023-01-29T20:41:16.945Z,8.38
2023-01-29T20:44:19.381Z,8.40
2023-01-29T20:47:22.065Z,8.13
2023-01-29T20:50:24.456Z,8.35
2023-01-29T20:53:27.025Z,8.63
2023-01-29T20:56:36.280Z,8.45
2023-01-29T20:59:47.212Z,9.50
2023-01-29T21:02:49.529Z,9.52
2023-01-29T21:05:52.398Z,8.95
2023-01-29T21:08:55.712Z,8.82
2023-01-29T21:11:58.331Z,12.50
2023-01-29T21:15:00.845Z,9.63
2023-01-29T21:18:06.039Z,9.50
2023-01-29T21:21:08.401Z,9.50
2023-01-29T21:24:11.830Z,9.10
2023-01-29T21:27:14.151Z,10.13
2023-01-29T21:30:18.219Z,9.73
2023-01-29T21:33:20.943Z,9.10
2023-01-29T21:36:23.594Z,9.30
2023-01-29T21:39:26.437Z,9.80
2023-01-29T21:42:48.085Z,10.43
2023-01-29T21:45:56.670Z,9.60
2023-01-29T21:48:59.297Z,10.18
2023-01-29T21:52:01.623Z,9.80
2023-01-29T21:55:05.460Z,10.00
2023-01-29T21:58:07.838Z,9.35
2023-01-29T22:01:36.499Z,10.43
2023-01-29T22:04:32.971Z,8.65
2023-01-29T22:07:35.286Z,9.13
2023-01-29T22:10:39.014Z,9.00
2023-01-29T22:13:41.458Z,10.00
2023-01-29T22:16:45.451Z,10.70
2023-01-29T22:19:48.295Z,10.40
2023-01-29T22:22:51.049Z,9.73
2023-01-29T22:25:53.699Z,9.55
2023-01-29T22:28:57.056Z,10.07
2023-01-29T22:31:59.513Z,10.15
2023-01-29T22:35:02.132Z,9.65
2023-01-29T22:38:04.993Z,9.85
2023-01-29T22:41:10.899Z,10.53
2023-01-29T22:44:13.172Z,9.18
2023-01-29T22:47:16.081Z,9.48
2023-01-29T22:50:18.648Z,9.20
2023-01-29T22:53:21.446Z,9.83
2023-01-29T22:56:29.548Z,9.25
2023-01-29T22:59:32.884Z,9.30
2023-01-29T23:02:35.263Z,9.67
2023-01-29T23:05:37.825Z,9.20
2023-01-29T23:08:40.203Z,9.40
2023-01-29T23:11:42.780Z,8.93
2023-01-29T23:14:45.179Z,9.75
2023-01-29T23:17:47.799Z,9.65
2023-01-29T23:20:56.676Z,9.82
2023-01-29T23:24:00.579Z,9.20
2023-01-29T23:27:15.206Z,9.77
2023-01-29T23:30:18.254Z,10.20
2023-01-29T23:33:21.024Z,9.17
2023-01-29T23:36:23.971Z,9.32
2023-01-29T23:39:26.391Z,8.65
2023-01-29T23:42:29.085Z,9.07
2023-01-29T23:45:31.471Z,8.82
2023-01-29T23:48:34.740Z,9.10
2023-01-29T23:51:37.119Z,9.48
2023-01-29T23:54:39.755Z,8.48
2023-01-29T23:57:42.111Z,9.25
